createdAt,value
2019-04-20T00:00:21.062Z,1
2019-04-20T00:01:26.682Z,1
2019-04-20T00:02:23.704Z,1
2019-04-20T00:03:23.551Z,0
2019-04-20T00:04:26.901Z,1
2019-04-20T00:05:23.191Z,1
2019-04-20T00:06:46.017Z,1
2019-04-20T00:07:24.498Z,1
2019-04-20T00:08:26.302Z,0
2019-04-20T00:10:01.042Z,1
2019-04-20T00:10:24.263Z,1
2019-04-20T00:11:28.078Z,1
2019-04-20T00:12:34.079Z,1
2019-04-20T00:13:33.051Z,1
2019-04-20T00:14:27.599Z,1
2019-04-20T00:15:23.948Z,1
2019-04-20T00:16:23.062Z,1
2019-04-20T00:17:22.027Z,1
2019-04-20T00:18:25.619Z,1
2019-04-20T00:19:31.798Z,1
2019-04-20T00:20:27.810Z,1
2019-04-20T00:21:22.818Z,1
2019-04-20T00:22:24.472Z,1
2019-04-20T00:23:29.186Z,1
2019-04-20T00:24:27.228Z,1
2019-04-20T00:25:24.135Z,1
2019-04-20T00:26:40.999Z,1
2019-04-20T00:27:42.580Z,1
2019-04-20T00:28:39.617Z,1
2019-04-20T00:29:39.163Z,1
2019-04-20T00:30:38.414Z,1
2019-04-20T00:31:39.835Z,0
2019-04-20T00:32:41.110Z,1
2019-04-20T00:33:36.756Z,1
2019-04-20T00:34:29.641Z,1
2019-04-20T00:35:23.413Z,1
2019-04-20T00:36:22.547Z,1
2019-04-20T00:37:23.323Z,0
2019-04-20T00:38:26.127Z,1
2019-04-20T00:39:23.957Z,1
2019-04-20T00:40:23.661Z,1
2019-04-20T00:41:24.512Z,0
2019-04-20T00:42:32.746Z,1
2019-04-20T00:43:27.828Z,1
2019-04-20T00:44:28.493Z,1
2019-04-20T00:45:28.669Z,1
2019-04-20T00:46:29.111Z,1
2019-04-20T00:47:36.743Z,1
2019-04-20T00:48:33.581Z,0
2019-04-20T00:49:34.412Z,1
2019-04-20T00:50:40.090Z,1
2019-04-20T00:51:38.947Z,1
2019-04-20T00:52:32.510Z,1
2019-04-20T00:53:31.117Z,1
2019-04-20T00:54:24.634Z,1
2019-04-20T00:55:23.633Z,0
2019-04-20T00:56:24.447Z,0
2019-04-20T00:57:34.531Z,0
2019-04-20T00:58:31.438Z,0
2019-04-20T00:59:35.171Z,0
2019-04-20T01:00:40.415Z,0
2019-04-20T01:01:47.352Z,0
2019-04-20T01:02:35.965Z,0
2019-04-20T01:03:38.599Z,0
2019-04-20T01:04:40.562Z,0
2019-04-20T01:05:46.187Z,0
2019-04-20T01:06:40.473Z,0
2019-04-20T01:07:34.539Z,0
2019-04-20T01:08:25.582Z,0
2019-04-20T01:09:24.736Z,0
2019-04-20T01:10:28.118Z,0
2019-04-20T01:13:12.131Z,0
2019-04-20T01:13:23.768Z,0
2019-04-20T01:14:27.123Z,0
2019-04-20T01:15:27.915Z,0
2019-04-20T01:16:33.132Z,0
2019-04-20T01:17:21.554Z,0
2019-04-20T01:18:20.725Z,0
2019-04-20T01:21:06.336Z,0
2019-04-20T01:21:19.795Z,0
2019-04-20T01:22:19.842Z,0
2019-04-20T01:23:20.707Z,0
2019-04-20T01:24:23.639Z,0
2019-04-20T01:25:24.301Z,0
2019-04-20T01:26:31.570Z,0
2019-04-20T01:27:31.987Z,0
2019-04-20T01:28:30.862Z,0
2019-04-20T01:29:24.892Z,0
2019-04-20T01:30:24.563Z,0
2019-04-20T01:31:27.061Z,0
2019-04-20T01:32:26.381Z,0
2019-04-20T01:33:31.557Z,0
2019-04-20T01:34:30.903Z,0
2019-04-20T01:35:35.432Z,0
2019-04-20T01:36:36.703Z,0
2019-04-20T01:37:29.123Z,0
2019-04-20T01:38:34.061Z,0
2019-04-20T01:39:25.975Z,0
2019-04-20T01:40:17.507Z,0
2019-04-20T01:41:18.213Z,0
2019-04-20T01:42:55.302Z,14
2019-04-20T01:43:54.773Z,0
2019-04-20T01:44:56.688Z,0
2019-04-20T01:46:01.040Z,0
2019-04-20T01:46:58.617Z,0
2019-04-20T01:47:58.190Z,0
2019-04-20T01:48:59.044Z,0
2019-04-20T01:50:03.257Z,0
2019-04-20T01:51:03.655Z,0
2019-04-20T01:52:03.659Z,0
2019-04-20T01:53:05.463Z,0
2019-04-20T01:54:11.602Z,0
2019-04-20T01:55:15.571Z,0
2019-04-20T01:56:12.341Z,0
2019-04-20T01:57:04.576Z,0
2019-04-20T01:58:17.198Z,0
2019-04-20T01:59:10.033Z,0
2019-04-20T02:00:05.920Z,0
2019-04-20T02:00:57.877Z,0
2019-04-20T02:02:02.974Z,0
2019-04-20T02:03:01.331Z,0
2019-04-20T02:03:58.513Z,0
2019-04-20T02:05:04.366Z,0
2019-04-20T02:06:03.235Z,0
2019-04-20T02:07:00.273Z,0
2019-04-20T02:07:58.696Z,0
2019-04-20T02:09:03.110Z,0
2019-04-20T02:10:02.796Z,0
2019-04-20T02:11:00.840Z,0
2019-04-20T02:12:04.715Z,0
2019-04-20T02:13:00.106Z,0
2019-04-20T02:14:02.157Z,0
2019-04-20T02:15:02.625Z,0
2019-04-20T02:16:04.818Z,0
2019-04-20T02:17:07.310Z,0
2019-04-20T02:18:10.675Z,0
2019-04-20T02:19:13.003Z,0
2019-04-20T02:20:15.434Z,0
2019-04-20T02:21:14.996Z,0
2019-04-20T02:22:09.574Z,0
2019-04-20T02:23:10.402Z,0
2019-04-20T02:24:02.588Z,0
2019-04-20T02:24:59.518Z,0
2019-04-20T02:25:58.848Z,0
2019-04-20T02:26:57.979Z,0
2019-04-20T02:28:17.385Z,0
2019-04-20T02:29:23.453Z,0
2019-04-20T02:30:29.629Z,0
2019-04-20T02:31:40.557Z,0
2019-04-20T02:35:34.203Z,0
2019-04-20T02:36:40.022Z,0
2019-04-20T02:37:35.569Z,0
2019-04-20T02:39:37.309Z,0
2019-04-20T02:40:38.512Z,0
2019-04-20T02:41:34.737Z,0
2019-04-20T02:42:33.739Z,0
2019-04-20T02:43:46.294Z,0
2019-04-20T02:44:40.202Z,0
2019-04-20T02:46:30.954Z,0
2019-04-20T02:47:40.156Z,0
2019-04-20T02:48:29.481Z,0
2019-04-20T02:49:35.222Z,0
2019-04-20T02:51:32.805Z,0
2019-04-20T02:52:37.865Z,0
2019-04-20T02:54:24.377Z,0
2019-04-20T02:55:29.650Z,0
2019-04-20T02:58:30.958Z,0
2019-04-20T03:01:19.958Z,0
2019-04-20T03:02:18.006Z,0
2019-04-20T03:03:13.345Z,0
2019-04-20T03:04:05.364Z,0
2019-04-20T03:05:12.062Z,0
2019-04-20T03:06:17.051Z,0
2019-04-20T03:07:14.756Z,0
2019-04-20T03:08:17.204Z,0
2019-04-20T03:09:25.190Z,0
2019-04-20T03:10:20.624Z,0
2019-04-20T03:11:29.196Z,0
2019-04-20T03:12:28.522Z,0
2019-04-20T03:13:23.905Z,0
2019-04-20T03:14:17.272Z,0
2019-04-20T03:15:25.024Z,0
2019-04-20T03:16:20.339Z,0
2019-04-20T03:17:26.709Z,0
2019-04-20T03:18:19.035Z,0
2019-04-20T03:19:15.819Z,0
2019-04-20T03:20:21.986Z,0
2019-04-20T03:21:24.420Z,0
2019-04-20T03:22:28.608Z,0
2019-04-20T03:23:29.565Z,0
2019-04-20T03:25:22.082Z,0
2019-04-20T03:26:20.811Z,0
2019-04-20T03:27:18.223Z,0
2019-04-20T03:28:23.401Z,0
2019-04-20T03:29:15.751Z,0
2019-04-20T03:31:03.684Z,0
2019-04-20T03:31:40.776Z,0
2019-04-20T03:32:49.569Z,0
2019-04-20T03:33:41.096Z,0
2019-04-20T03:35:27.619Z,0
2019-04-20T03:36:33.376Z,0
2019-04-20T03:38:19.617Z,0
2019-04-20T03:39:21.794Z,0
2019-04-20T03:40:17.285Z,0
2019-04-20T03:41:13.793Z,0
2019-04-20T03:42:05.119Z,0
2019-04-20T03:43:03.793Z,0
2019-04-20T03:44:08.741Z,0
2019-04-20T03:45:09.088Z,0
2019-04-20T03:46:08.146Z,0
2019-04-20T03:47:08.632Z,1
2019-04-20T03:48:14.850Z,1
2019-04-20T03:49:18.237Z,1
2019-04-20T03:50:30.633Z,0
2019-04-20T03:51:28.810Z,1
2019-04-20T03:52:23.227Z,1
2019-04-20T03:53:22.515Z,1
2019-04-20T03:54:19.531Z,1
2019-04-20T03:55:19.710Z,2
2019-04-20T03:56:27.820Z,2
2019-04-20T03:57:26.196Z,2
2019-04-20T03:58:23.623Z,3
2019-04-20T03:59:15.994Z,3
2019-04-20T04:01:35.663Z,4
2019-04-20T04:03:34.527Z,7
2019-04-20T04:04:26.808Z,8
2019-04-20T04:05:23.412Z,9
2019-04-20T04:06:14.695Z,11
2019-04-20T04:07:15.243Z,13
2019-04-20T04:08:14.554Z,15
2019-04-20T04:09:16.001Z,17
2019-04-20T04:10:20.506Z,21
2019-04-20T04:11:19.839Z,24
2019-04-20T04:12:15.186Z,28
2019-04-20T04:13:05.113Z,33
2019-04-20T04:14:05.041Z,38
2019-04-20T04:15:04.213Z,44
2019-04-20T04:16:08.521Z,49
2019-04-20T04:17:06.136Z,57
2019-04-20T04:18:13.434Z,64
2019-04-20T04:19:12.505Z,72
2019-04-20T04:20:10.053Z,81
2019-04-20T04:21:08.838Z,90
2019-04-20T04:22:17.958Z,100
2019-04-20T04:23:21.885Z,110
2019-04-20T04:24:16.869Z,120
2019-04-20T04:25:15.788Z,134
2019-04-20T04:26:21.512Z,143
2019-04-20T04:27:18.384Z,157
2019-04-20T04:28:18.374Z,173
2019-04-20T04:29:29.717Z,188
2019-04-20T04:30:21.735Z,204
2019-04-20T04:31:25.762Z,214
2019-04-20T04:32:39.245Z,233
2019-04-20T04:33:45.539Z,253
2019-04-20T04:34:22.440Z,271
2019-04-20T04:35:19.918Z,286
2019-04-20T04:36:20.623Z,303
2019-04-20T04:37:23.952Z,325
2019-04-20T04:38:31.407Z,348
2019-04-20T04:39:20.843Z,365
2019-04-20T04:40:30.801Z,386
2019-04-20T04:41:26.420Z,410
2019-04-20T04:42:27.503Z,426
2019-04-20T04:43:25.257Z,449
2019-04-20T04:44:19.054Z,478
2019-04-20T04:45:11.000Z,483
2019-04-20T04:46:07.887Z,516
2019-04-20T04:47:10.386Z,531
2019-04-20T04:48:14.562Z,559
2019-04-20T04:49:15.441Z,566
2019-04-20T04:50:12.927Z,608
2019-04-20T04:51:15.387Z,611
2019-04-20T04:52:12.292Z,638
2019-04-20T04:53:14.894Z,679
2019-04-20T04:54:16.161Z,667
2019-04-20T04:55:19.846Z,700
2019-04-20T04:56:13.061Z,743
2019-04-20T04:57:09.375Z,740
2019-04-20T04:58:08.578Z,763
2019-04-20T04:59:08.531Z,782
2019-04-20T05:00:10.139Z,823
2019-04-20T05:01:14.336Z,841
2019-04-20T05:02:09.657Z,820
2019-04-20T05:03:26.563Z,858
2019-04-20T05:04:24.626Z,902
2019-04-20T05:05:30.687Z,921
2019-04-20T05:06:21.848Z,947
2019-04-20T05:07:18.707Z,939
2019-04-20T05:08:18.615Z,971
2019-04-20T05:09:12.276Z,980
2019-04-20T05:10:09.758Z,1000
2019-04-20T05:11:10.934Z,1038
2019-04-20T05:12:13.871Z,1067
2019-04-20T05:13:11.226Z,1095
2019-04-20T05:14:14.933Z,1081
2019-04-20T05:15:15.667Z,1061
2019-04-20T05:16:23.347Z,1111
2019-04-20T05:17:26.035Z,1149
2019-04-20T05:18:34.243Z,1187
2019-04-20T05:19:29.022Z,1188
2019-04-20T05:20:26.771Z,1200
2019-04-20T05:21:29.690Z,1214
2019-04-20T05:22:30.726Z,1238
2019-04-20T05:23:24.141Z,1285
2019-04-20T05:24:25.394Z,1278
2019-04-20T05:25:30.761Z,1281
2019-04-20T05:26:29.745Z,1311
2019-04-20T05:27:29.951Z,1317
2019-04-20T05:28:23.763Z,1344
2019-04-20T05:29:17.513Z,1350
2019-04-20T05:30:11.854Z,1352
2019-04-20T05:31:12.036Z,1385
2019-04-20T05:32:16.812Z,1401
2019-04-20T05:33:21.002Z,1440
2019-04-20T05:34:30.379Z,1470
2019-04-20T05:35:30.462Z,1475
2019-04-20T05:36:27.864Z,1492
2019-04-20T05:37:39.611Z,1496
2019-04-20T05:38:35.286Z,1521
2019-04-20T05:39:32.198Z,1535
2019-04-20T05:40:32.400Z,1540
2019-04-20T05:41:30.843Z,1523
2019-04-20T05:42:35.408Z,1525
2019-04-20T05:43:31.450Z,1518
2019-04-20T05:44:25.448Z,1583
2019-04-20T05:45:28.208Z,1603
2019-04-20T05:46:30.498Z,1634
2019-04-20T05:47:33.027Z,1647
2019-04-20T05:48:24.623Z,1667
2019-04-20T05:49:29.539Z,1677
2019-04-20T05:50:30.092Z,1713
2019-04-20T05:51:34.893Z,1713
2019-04-20T05:53:32.185Z,1712
2019-04-20T05:54:38.662Z,1737
2019-04-20T05:55:32.862Z,1747
2019-04-20T05:56:35.162Z,1765
2019-04-20T05:57:34.733Z,1776
2019-04-20T05:58:32.557Z,1791
2019-04-20T05:59:32.197Z,1812
2019-04-20T06:00:40.039Z,1839
2019-04-20T06:01:37.786Z,1875
2019-04-20T06:02:27.105Z,1900
2019-04-20T06:03:31.878Z,1896
2019-04-20T06:04:45.922Z,1924
2019-04-20T06:05:34.500Z,1936
2019-04-20T06:06:37.384Z,1940
2019-04-20T06:07:35.604Z,1928
2019-04-20T06:08:59.018Z,1926
2019-04-20T06:09:39.510Z,1918
2019-04-20T06:10:37.821Z,1905
2019-04-20T06:11:40.533Z,1960
2019-04-20T06:12:35.549Z,1979
2019-04-20T06:13:29.632Z,2000
2019-04-20T06:14:27.579Z,2012
2019-04-20T06:15:38.138Z,2016
2019-04-20T06:16:40.074Z,2032
2019-04-20T06:17:37.156Z,2046
2019-04-20T06:18:29.787Z,2065
2019-04-20T06:19:35.293Z,2069
2019-04-20T06:20:35.689Z,2097
2019-04-20T06:21:36.437Z,2116
2019-04-20T06:22:54.473Z,2153
2019-04-20T06:23:44.328Z,2176
2019-04-20T06:24:44.667Z,2221
2019-04-20T06:25:43.639Z,2220
2019-04-20T06:27:39.747Z,2202
2019-04-20T06:28:34.947Z,2215
2019-04-20T06:29:34.578Z,2215
2019-04-20T06:30:30.541Z,2249
2019-04-20T06:31:35.162Z,2279
2019-04-20T06:32:38.567Z,2273
2019-04-20T06:33:51.808Z,2293
2019-04-20T06:34:53.249Z,2318
2019-04-20T06:35:51.444Z,2330
2019-04-20T06:37:36.043Z,2368
2019-04-20T06:39:54.175Z,2401
2019-04-20T06:40:53.810Z,2417
2019-04-20T06:41:59.775Z,2421
2019-04-20T06:42:39.443Z,2436
2019-04-20T06:43:45.659Z,2458
2019-04-20T06:45:43.648Z,2489
2019-04-20T06:46:42.033Z,2537
2019-04-20T06:47:45.521Z,2539
2019-04-20T06:48:45.700Z,2563
2019-04-20T06:50:38.271Z,2559
2019-04-20T06:51:41.658Z,2557
2019-04-20T06:52:36.574Z,2548
2019-04-20T06:53:43.271Z,2527
2019-04-20T06:54:37.914Z,2541
2019-04-20T06:55:48.253Z,2600
2019-04-20T06:56:40.612Z,2628
2019-04-20T06:57:39.594Z,2640
2019-04-20T06:59:42.817Z,2644
2019-04-20T07:00:41.685Z,2633
2019-04-20T07:01:48.265Z,2658
2019-04-20T07:02:53.732Z,2691
2019-04-20T07:03:51.126Z,2680
2019-04-20T07:04:55.296Z,2716
2019-04-20T07:05:38.882Z,2769
2019-04-20T07:06:50.068Z,2804
2019-04-20T07:07:43.017Z,2825
2019-04-20T07:08:56.195Z,2811
2019-04-20T07:09:52.336Z,2801
2019-04-20T07:10:43.648Z,2796
2019-04-20T07:11:42.411Z,2835
2019-04-20T07:12:36.770Z,2863
2019-04-20T07:13:30.742Z,2890
2019-04-20T07:14:32.782Z,2882
2019-04-20T07:15:36.280Z,2904
2019-04-20T07:16:44.450Z,2930
2019-04-20T07:18:42.239Z,2993
2019-04-20T07:19:39.757Z,3016
2019-04-20T07:20:50.005Z,3012
2019-04-20T07:21:51.664Z,2977
2019-04-20T07:22:45.601Z,2975
2019-04-20T07:23:46.336Z,3016
2019-04-20T07:24:45.606Z,3059
2019-04-20T07:26:01.704Z,3105
2019-04-20T07:26:48.999Z,3134
2019-04-20T07:27:47.772Z,3147
2019-04-20T07:28:44.935Z,3192
2019-04-20T07:29:45.846Z,3197
2019-04-20T07:30:44.716Z,3171
2019-04-20T07:31:39.217Z,3211
2019-04-20T07:32:52.020Z,3226
2019-04-20T07:33:46.185Z,3271
2019-04-20T07:34:47.392Z,3292
2019-04-20T07:36:45.381Z,3314
2019-04-20T07:38:46.065Z,3344
2019-04-20T07:39:47.622Z,3384
2019-04-20T07:40:41.699Z,3387
2019-04-20T07:41:47.609Z,3401
2019-04-20T07:42:46.599Z,3437
2019-04-20T07:43:52.606Z,3457
2019-04-20T07:44:48.492Z,3502
2019-04-20T07:45:41.175Z,3536
2019-04-20T07:47:01.345Z,3534
2019-04-20T07:47:52.271Z,3563
2019-04-20T07:48:42.001Z,3582
2019-04-20T07:49:45.527Z,3624
2019-04-20T07:50:37.172Z,3693
2019-04-20T07:51:32.018Z,3747
2019-04-20T07:52:38.341Z,3744
2019-04-20T07:53:40.107Z,3696
2019-04-20T07:54:58.272Z,3684
2019-04-20T07:55:50.406Z,3709
2019-04-20T07:56:47.452Z,3771
2019-04-20T07:57:41.746Z,3783
2019-04-20T07:58:35.630Z,3866
2019-04-20T07:59:37.182Z,4036
2019-04-20T08:00:54.918Z,4016
2019-04-20T08:01:52.457Z,4119
2019-04-20T08:02:48.589Z,4193
2019-04-20T08:03:49.999Z,4255
2019-04-20T08:04:42.087Z,4293
2019-04-20T08:05:39.078Z,4302
2019-04-20T08:06:36.617Z,4374
2019-04-20T08:07:38.919Z,4436
2019-04-20T08:08:43.411Z,4438
2019-04-20T08:09:37.843Z,4887
2019-04-20T08:10:37.923Z,26424
2019-04-20T08:12:55.165Z,48992
2019-04-20T08:13:50.832Z,47688
2019-04-20T08:14:55.184Z,43016
2019-04-20T08:16:58.105Z,43544
2019-04-20T08:17:53.743Z,47688
2019-04-20T08:18:49.585Z,33528
2019-04-20T08:19:45.070Z,25776
2019-04-20T08:20:52.224Z,29248
2019-04-20T08:21:47.145Z,30488
2019-04-20T08:22:51.466Z,24384
2019-04-20T08:23:48.684Z,27680
2019-04-20T08:24:42.520Z,32424
2019-04-20T08:25:41.744Z,23360
2019-04-20T08:26:34.341Z,17448
2019-04-20T08:27:29.738Z,21016
2019-04-20T08:28:35.793Z,17904
2019-04-20T08:29:44.938Z,25624
2019-04-20T08:30:46.219Z,33840
2019-04-20T08:31:39.703Z,34272
2019-04-20T08:32:46.552Z,39720
2019-04-20T08:33:54.416Z,42896
2019-04-20T08:34:53.190Z,26152
2019-04-20T08:35:52.265Z,15160
2019-04-20T08:36:50.708Z,10248
2019-04-20T08:38:00.735Z,15600
2019-04-20T08:39:12.585Z,15688
2019-04-20T08:39:56.933Z,9127
2019-04-20T08:40:47.485Z,6644
2019-04-20T08:41:55.861Z,12737
2019-04-20T08:43:02.189Z,14728
2019-04-20T08:43:52.988Z,21040
2019-04-20T08:45:50.750Z,16992
2019-04-20T08:46:58.353Z,22368
2019-04-20T08:47:56.203Z,20352
2019-04-20T08:48:50.548Z,17016
2019-04-20T08:49:55.202Z,18216
2019-04-20T08:50:50.322Z,13474
2019-04-20T08:51:54.854Z,13653
2019-04-20T08:53:08.716Z,12602
2019-04-20T08:53:51.616Z,15995
2019-04-20T08:54:47.682Z,12454
2019-04-20T08:55:44.829Z,5199
2019-04-20T08:56:38.677Z,13000
2019-04-20T08:57:31.823Z,13856
2019-04-20T08:58:31.551Z,18824
2019-04-20T08:59:33.716Z,19752
2019-04-20T09:00:38.419Z,20128
2019-04-20T09:01:35.696Z,19560
2019-04-20T09:02:32.627Z,21712
2019-04-20T09:03:43.644Z,20280
2019-04-20T09:04:43.098Z,37920
2019-04-20T09:05:42.235Z,26272
2019-04-20T09:06:45.299Z,29200
2019-04-20T09:07:35.937Z,39064
2019-04-20T09:08:46.409Z,43216
2019-04-20T09:09:52.371Z,40696
2019-04-20T09:10:47.984Z,34256
2019-04-20T09:11:54.097Z,40200
2019-04-20T09:12:44.734Z,50720
2019-04-20T09:13:39.385Z,49840
2019-04-20T09:14:35.105Z,17016
2019-04-20T09:15:34.144Z,12877
2019-04-20T09:16:38.498Z,25648
2019-04-20T09:17:39.575Z,23504
2019-04-20T09:18:43.103Z,29888
2019-04-20T09:19:44.708Z,15552
2019-04-20T09:20:43.389Z,11795
2019-04-20T09:21:42.452Z,14029
2019-04-20T09:22:45.400Z,17824
2019-04-20T09:23:44.924Z,19256
2019-04-20T09:24:57.463Z,24032
2019-04-20T09:25:59.919Z,33904
2019-04-20T09:26:47.323Z,29064
2019-04-20T09:27:43.457Z,56056
2019-04-20T09:28:39.302Z,48064
2019-04-20T09:29:42.437Z,30208
2019-04-20T09:30:42.719Z,20352
2019-04-20T09:31:46.814Z,15472
2019-04-20T09:32:48.290Z,10959
2019-04-20T09:33:50.999Z,14171
2019-04-20T09:34:52.973Z,17264
2019-04-20T09:35:47.169Z,14486
2019-04-20T09:36:45.665Z,16067
2019-04-20T09:37:52.836Z,14033
2019-04-20T09:39:52.799Z,10480
2019-04-20T09:40:49.276Z,9337
2019-04-20T09:41:54.111Z,11422
2019-04-20T09:42:36.273Z,14139
2019-04-20T09:43:34.812Z,10015
2019-04-20T09:44:37.406Z,6921
2019-04-20T09:45:39.829Z,23544
2019-04-20T09:46:39.884Z,15215
2019-04-20T09:47:41.861Z,16448
2019-04-20T09:48:42.519Z,23688
2019-04-20T09:49:47.989Z,25456
2019-04-20T09:50:52.914Z,11680
2019-04-20T09:51:49.237Z,10853
2019-04-20T09:52:51.168Z,10777
2019-04-20T09:53:47.949Z,9773
2019-04-20T09:55:56.626Z,8060
2019-04-20T09:56:59.135Z,14082
2019-04-20T09:57:53.887Z,19872
2019-04-20T09:58:54.471Z,15454
2019-04-20T09:59:53.516Z,25376
2019-04-20T10:00:50.555Z,23192
2019-04-20T10:01:43.582Z,40648
2019-04-20T10:02:39.204Z,35104
2019-04-20T10:03:37.113Z,26224
2019-04-20T10:04:37.560Z,23840
2019-04-20T10:05:36.300Z,14644
2019-04-20T10:06:37.610Z,15816
2019-04-20T10:07:37.673Z,22128
2019-04-20T10:08:41.826Z,10314
2019-04-20T10:09:41.565Z,12852
2019-04-20T10:10:41.643Z,7882
2019-04-20T10:11:40.710Z,8207
2019-04-20T10:12:37.891Z,8583
2019-04-20T10:13:38.038Z,7317
2019-04-20T10:14:38.504Z,9826
2019-04-20T10:15:37.670Z,10485
2019-04-20T10:16:37.858Z,25088
2019-04-20T10:17:38.536Z,22984
2019-04-20T10:18:41.248Z,14585
2019-04-20T10:19:39.904Z,6512
2019-04-20T10:20:40.432Z,12840
2019-04-20T10:21:38.180Z,21008
2019-04-20T10:22:38.361Z,25560
2019-04-20T10:23:38.688Z,24232
2019-04-20T10:24:38.839Z,57472
2019-04-20T10:25:40.330Z,52192
2019-04-20T10:26:39.041Z,54464
2019-04-20T10:27:39.694Z,42152
2019-04-20T10:28:39.451Z,17000
2019-04-20T10:29:39.461Z,25840
2019-04-20T10:30:38.755Z,58816
2019-04-20T10:31:44.220Z,26968
2019-04-20T10:32:44.724Z,17240
2019-04-20T10:33:39.695Z,17256
2019-04-20T10:34:40.912Z,12284
2019-04-20T10:35:39.391Z,22016
2019-04-20T10:36:39.571Z,23008
2019-04-20T10:37:39.927Z,15204
2019-04-20T10:38:40.200Z,12231
2019-04-20T10:39:40.415Z,15318
2019-04-20T10:40:50.628Z,17624
2019-04-20T10:41:48.875Z,39048
2019-04-20T10:42:41.599Z,41296
2019-04-20T10:43:40.743Z,42560
2019-04-20T10:44:40.885Z,53376
2019-04-20T10:45:39.604Z,58144
2019-04-20T10:46:40.699Z,39712
2019-04-20T10:47:41.060Z,26568
2019-04-20T10:48:45.599Z,26272
2019-04-20T10:49:41.082Z,39288
2019-04-20T10:50:40.885Z,22672
2019-04-20T10:51:40.125Z,29536
2019-04-20T10:52:41.582Z,53736
2019-04-20T10:53:40.400Z,65535
2019-04-20T10:54:40.605Z,65535
2019-04-20T10:55:40.160Z,65535
2019-04-20T10:56:41.527Z,65535
2019-04-20T10:57:41.689Z,58256
2019-04-20T10:58:40.546Z,21232
2019-04-20T10:59:41.492Z,24456
2019-04-20T11:00:41.982Z,30672
2019-04-20T11:01:41.617Z,35128
2019-04-20T11:02:43.918Z,42000
2019-04-20T11:03:42.714Z,62480
2019-04-20T11:04:40.941Z,65535
2019-04-20T11:05:42.539Z,65535
2019-04-20T11:06:41.095Z,65535
2019-04-20T11:07:41.217Z,65535
2019-04-20T11:08:42.554Z,65535
2019-04-20T11:09:42.816Z,65535
2019-04-20T11:10:55.060Z,65535
2019-04-20T11:11:43.999Z,65535
2019-04-20T11:12:42.650Z,65535
2019-04-20T11:13:41.691Z,65535
2019-04-20T11:14:45.248Z,65535
2019-04-20T11:15:44.070Z,65535
2019-04-20T11:16:42.950Z,65535
2019-04-20T11:17:43.447Z,65535
2019-04-20T11:18:43.689Z,65535
2019-04-20T11:19:43.330Z,65535
2019-04-20T11:20:43.596Z,65535
2019-04-20T11:21:44.072Z,65535
2019-04-20T11:22:44.241Z,65535
2019-04-20T11:23:44.399Z,65535
2019-04-20T11:24:42.492Z,65535
2019-04-20T11:25:44.146Z,65535
2019-04-20T11:26:43.732Z,65535
2019-04-20T11:27:43.934Z,65535
2019-04-20T11:28:43.936Z,65535
2019-04-20T11:29:44.368Z,65535
2019-04-20T11:30:43.805Z,65535
2019-04-20T11:31:47.632Z,65535
2019-04-20T11:32:44.347Z,65535
2019-04-20T11:33:44.060Z,65535
2019-04-20T11:34:44.019Z,65535
2019-04-20T11:35:45.147Z,65535
2019-04-20T11:36:43.393Z,65535
2019-04-20T11:37:44.886Z,65535
2019-04-20T11:38:43.237Z,65535
2019-04-20T11:39:43.303Z,65535
2019-04-20T11:40:44.868Z,65535
2019-04-20T11:41:45.577Z,65535
2019-04-20T11:42:45.413Z,65535
2019-04-20T11:43:44.022Z,65535
2019-04-20T11:44:44.739Z,65535
2019-04-20T11:45:44.704Z,65535
2019-04-20T11:46:44.897Z,65535
2019-04-20T11:47:43.725Z,65535
2019-04-20T11:48:43.915Z,65535
2019-04-20T11:49:43.906Z,65535
2019-04-20T11:50:45.385Z,65535
2019-04-20T11:51:45.452Z,65535
2019-04-20T11:52:48.065Z,65535
2019-04-20T11:53:44.281Z,65535
2019-04-20T11:54:44.433Z,65535
2019-04-20T11:55:44.690Z,65535
2019-04-20T11:56:47.204Z,65535
2019-04-20T11:57:47.083Z,65535
2019-04-20T11:58:44.921Z,65535
2019-04-20T11:59:45.291Z,65535
2019-04-20T12:00:53.711Z,65535
2019-04-20T12:01:51.780Z,65535
2019-04-20T12:02:48.161Z,65535
2019-04-20T12:03:58.124Z,65535
2019-04-20T12:04:56.136Z,65535
2019-04-20T12:05:53.143Z,65535
2019-04-20T12:06:46.747Z,65535
2019-04-20T12:07:46.920Z,65535
2019-04-20T12:08:47.090Z,65535
2019-04-20T12:09:47.203Z,65535
2019-04-20T12:10:49.144Z,65535
2019-04-20T12:11:59.038Z,65535
2019-04-20T12:13:13.205Z,65535
2019-04-20T12:13:46.816Z,65535
2019-04-20T12:14:46.597Z,65535
2019-04-20T12:15:47.657Z,65535
2019-04-20T12:16:47.794Z,65535
2019-04-20T12:17:47.321Z,65535
2019-04-20T12:18:48.239Z,65535
2019-04-20T12:19:48.152Z,65535
2019-04-20T12:20:48.281Z,65535
2019-04-20T12:21:47.520Z,65535
2019-04-20T12:22:48.382Z,65535
2019-04-20T12:23:48.637Z,65535
2019-04-20T12:24:47.935Z,65535
2019-04-20T12:25:48.130Z,65535
2019-04-20T12:26:48.870Z,65535
2019-04-20T12:27:52.349Z,65535
2019-04-20T12:28:49.644Z,65535
2019-04-20T12:29:48.305Z,65535
2019-04-20T12:30:48.360Z,65535
2019-04-20T12:31:53.778Z,65535
2019-04-20T12:32:55.052Z,65535
2019-04-20T12:33:50.467Z,65535
2019-04-20T12:34:49.552Z,65535
2019-04-20T12:35:50.126Z,65535
2019-04-20T12:36:49.162Z,65535
2019-04-20T12:37:51.246Z,65535
2019-04-20T12:38:49.625Z,65535
2019-04-20T12:39:51.114Z,65535
2019-04-20T12:40:50.314Z,65535
2019-04-20T12:41:56.391Z,65535
2019-04-20T12:42:50.954Z,65535
2019-04-20T12:43:49.875Z,65535
2019-04-20T12:44:51.081Z,65535
2019-04-20T12:45:50.034Z,63088
2019-04-20T12:46:50.052Z,64800
2019-04-20T12:47:51.580Z,65535
2019-04-20T12:48:51.500Z,65535
2019-04-20T12:49:51.679Z,65535
2019-04-20T12:50:50.508Z,65535
2019-04-20T12:51:55.908Z,65535
2019-04-20T12:52:52.526Z,65535
2019-04-20T12:53:50.840Z,65535
2019-04-20T12:54:52.502Z,65535
2019-04-20T12:55:52.673Z,65535
2019-04-20T12:56:51.035Z,65535
2019-04-20T12:57:52.521Z,65535
2019-04-20T12:58:51.674Z,65535
2019-04-20T12:59:52.404Z,65535
2019-04-20T13:00:52.225Z,65535
2019-04-20T13:01:51.596Z,55016
2019-04-20T13:02:51.677Z,48920
2019-04-20T13:03:53.174Z,52912
2019-04-20T13:04:53.361Z,63904
2019-04-20T13:05:52.036Z,65535
2019-04-20T13:06:55.155Z,65535
2019-04-20T13:07:56.365Z,65535
2019-04-20T13:08:55.873Z,65535
2019-04-20T13:09:54.660Z,63480
2019-04-20T13:10:54.600Z,47920
2019-04-20T13:11:57.790Z,39496
2019-04-20T13:12:54.384Z,43800
2019-04-20T13:13:52.715Z,55560
2019-04-20T13:14:53.747Z,65088
2019-04-20T13:15:54.196Z,65535
2019-04-20T13:16:55.065Z,65535
2019-04-20T13:17:54.250Z,62208
2019-04-20T13:18:53.123Z,53232
2019-04-20T13:19:53.387Z,38216
2019-04-20T13:20:56.152Z,31624
2019-04-20T13:21:54.774Z,35976
2019-04-20T13:22:53.443Z,48552
2019-04-20T13:23:55.279Z,57976
2019-04-20T13:24:54.828Z,65535
2019-04-20T13:25:54.920Z,65535
2019-04-20T13:26:55.174Z,65535
2019-04-20T13:27:54.687Z,61440
2019-04-20T13:28:55.078Z,58272
2019-04-20T13:29:54.455Z,58872
2019-04-20T13:30:55.563Z,61000
2019-04-20T13:31:55.265Z,62736
2019-04-20T13:32:54.007Z,62488
2019-04-20T13:33:54.914Z,60472
2019-04-20T13:34:56.183Z,58288
2019-04-20T13:35:54.840Z,54016
2019-04-20T13:36:53.940Z,48176
2019-04-20T13:37:54.166Z,43728
2019-04-20T13:38:54.277Z,38072
2019-04-20T13:39:56.567Z,33536
2019-04-20T13:40:55.713Z,33144
2019-04-20T13:42:03.144Z,35504
2019-04-20T13:42:55.943Z,38320
2019-04-20T13:43:57.490Z,40432
2019-04-20T13:44:55.464Z,44808
2019-04-20T13:45:55.082Z,50464
2019-04-20T13:46:54.792Z,51752
2019-04-20T13:47:55.047Z,51352
2019-04-20T13:48:55.656Z,53128
2019-04-20T13:49:56.585Z,53592
2019-04-20T13:50:56.089Z,51136
2019-04-20T13:51:54.951Z,50384
2019-04-20T13:52:56.492Z,51656
2019-04-20T13:53:56.084Z,53144
2019-04-20T13:54:55.970Z,53544
2019-04-20T13:55:56.018Z,50544
2019-04-20T13:56:55.669Z,45480
2019-04-20T13:57:55.867Z,41744
2019-04-20T13:58:56.153Z,39696
2019-04-20T13:59:55.837Z,41224
2019-04-20T14:00:55.897Z,44464
2019-04-20T14:01:57.028Z,45920
2019-04-20T14:02:56.348Z,45368
2019-04-20T14:03:56.669Z,44072
2019-04-20T14:04:56.951Z,43832
2019-04-20T14:05:56.734Z,50616
2019-04-20T14:06:55.749Z,55272